sensor_id;sensor_type;location;lat;lon;timestamp;P1;durP1;ratioP1;P2;durP2;ratioP2
76094;SDS011;64821;13.710;100.604;2023-02-10T00:00:17;16.67;;;6.50;;
76094;SDS011;64821;13.710;100.604;2023-02-10T00:01:21;14.23;;;7.00;;
76094;SDS011;64821;13.710;100.604;2023-02-10T00:02:26;13.68;;;6.32;;
76094;SDS011;64821;13.710;100.604;2023-02-10T00:03:32;14.38;;;6.25;;
76094;SDS011;64821;13.710;100.604;2023-02-10T00:04:36;13.23;;;6.50;;
76094;SDS011;64821;13.710;100.604;2023-02-10T00:05:41;12.68;;;6.40;;
76094;SDS011;64821;13.710;100.604;2023-02-10T00:06:45;14.60;;;6.50;;
76094;SDS011;64821;13.710;100.604;2023-02-10T00:07:49;13.85;;;6.57;;
76094;SDS011;64821;13.710;100.604;2023-02-10T00:08:53;12.68;;;6.47;;
76094;SDS011;64821;13.710;100.604;2023-02-10T00:09:58;13.87;;;6.93;;
76094;SDS011;64821;13.710;100.604;2023-02-10T00:11:02;15.20;;;6.80;;
76094;SDS011;64821;13.710;100.604;2023-02-10T00:12:07;13.15;;;6.47;;
76094;SDS011;64821;13.710;100.604;2023-02-10T00:13:11;12.48;;;6.32;;
76094;SDS011;64821;13.710;100.604;2023-02-10T00:14:15;12.45;;;6.70;;
76094;SDS011;64821;13.710;100.604;2023-02-10T00:15:20;11.73;;;6.23;;
76094;SDS011;64821;13.710;100.604;2023-02-10T00:16:24;13.75;;;6.85;;
76094;SDS011;64821;13.710;100.604;2023-02-10T00:17:28;14.75;;;6.82;;
76094;SDS011;64821;13.710;100.604;2023-02-10T00:18:32;13.38;;;6.57;;
76094;SDS011;64821;13.710;100.604;2023-02-10T00:19:38;12.52;;;6.50;;
76094;SDS011;64821;13.710;100.604;2023-02-10T00:20:41;16.77;;;6.87;;
76094;SDS011;64821;13.710;100.604;2023-02-10T00:21:45;12.25;;;6.63;;
76094;SDS011;64821;13.710;100.604;2023-02-10T00:22:49;14.15;;;7.40;;
76094;SDS011;64821;13.710;100.604;2023-02-10T00:23:53;14.43;;;6.60;;
76094;SDS011;64821;13.710;100.604;2023-02-10T00:24:56;16.35;;;6.80;;
76094;SDS011;64821;13.710;100.604;2023-02-10T00:26:01;11.27;;;6.37;;
76094;SDS011;64821;13.710;100.604;2023-02-10T00:27:06;11.57;;;6.18;;
76094;SDS011;64821;13.710;100.604;2023-02-10T00:28:10;15.82;;;6.97;;
76094;SDS011;64821;13.710;100.604;2023-02-10T00:29:14;12.65;;;6.40;;
76094;SDS011;64821;13.710;100.604;2023-02-10T00:30:17;16.13;;;7.05;;
76094;SDS011;64821;13.710;100.604;2023-02-10T00:31:22;12.70;;;7.17;;
76094;SDS011;64821;13.710;100.604;2023-02-10T00:32:26;12.88;;;6.55;;
76094;SDS011;64821;13.710;100.604;2023-02-10T00:33:29;12.20;;;6.80;;
76094;SDS011;64821;13.710;100.604;2023-02-10T00:34:33;12.32;;;6.60;;
76094;SDS011;64821;13.710;100.604;2023-02-10T00:35:39;12.35;;;6.75;;
76094;SDS011;64821;13.710;100.604;2023-02-10T00:36:42;14.40;;;6.77;;
76094;SDS011;64821;13.710;100.604;2023-02-10T00:37:46;13.77;;;6.85;;
76094;SDS011;64821;13.710;100.604;2023-02-10T00:38:50;13.93;;;7.00;;
76094;SDS011;64821;13.710;100.604;2023-02-10T00:39:54;16.05;;;7.05;;
76094;SDS011;64821;13.710;100.604;2023-02-10T00:41:01;14.35;;;7.15;;
76094;SDS011;64821;13.710;100.604;2023-02-10T00:42:06;13.53;;;6.80;;
76094;SDS011;64821;13.710;100.604;2023-02-10T00:43:09;14.75;;;7.00;;
76094;SDS011;64821;13.710;100.604;2023-02-10T00:44:13;14.27;;;6.38;;
76094;SDS011;64821;13.710;100.604;2023-02-10T00:45:17;13.43;;;7.00;;
76094;SDS011;64821;13.710;100.604;2023-02-10T00:46:21;15.20;;;7.00;;
76094;SDS011;64821;13.710;100.604;2023-02-10T00:47:25;14.20;;;6.70;;
76094;SDS011;64821;13.710;100.604;2023-02-10T00:48:29;11.50;;;6.65;;
76094;SDS011;64821;13.710;100.604;2023-02-10T00:49:32;13.63;;;7.10;;
76094;SDS011;64821;13.710;100.604;2023-02-10T00:50:38;13.65;;;7.18;;
76094;SDS011;64821;13.710;100.604;2023-02-10T00:51:44;14.02;;;7.20;;
76094;SDS011;64821;13.710;100.604;2023-02-10T00:52:48;15.87;;;7.00;;
76094;SDS011;64821;13.710;100.604;2023-02-10T00:53:52;13.13;;;7.10;;
76094;SDS011;64821;13.710;100.604;2023-02-10T00:54:55;13.77;;;7.18;;
76094;SDS011;64821;13.710;100.604;2023-02-10T00:55:59;13.85;;;7.10;;
76094;SDS011;64821;13.710;100.604;2023-02-10T00:57:03;13.57;;;7.10;;
76094;SDS011;64821;13.710;100.604;2023-02-10T00:58:07;15.37;;;7.50;;
76094;SDS011;64821;13.710;100.604;2023-02-10T00:59:11;13.95;;;7.13;;
76094;SDS011;64821;13.710;100.604;2023-02-10T01:00:15;13.02;;;7.35;;
76094;SDS011;64821;13.710;100.604;2023-02-10T01:01:19;12.55;;;6.78;;
76094;SDS011;64821;13.710;100.604;2023-02-10T01:02:23;12.60;;;6.65;;
76094;SDS011;64821;13.710;100.604;2023-02-10T01:03:26;13.13;;;7.07;;
76094;SDS011;64821;13.710;100.604;2023-02-10T01:04:30;16.25;;;7.40;;
76094;SDS011;64821;13.710;100.604;2023-02-10T01:05:34;14.70;;;7.57;;
76094;SDS011;64821;13.710;100.604;2023-02-10T01:06:40;14.70;;;7.47;;
76094;SDS011;64821;13.710;100.604;2023-02-10T01:07:44;15.70;;;8.23;;
76094;SDS011;64821;13.710;100.604;2023-02-10T01:08:47;17.70;;;7.80;;
76094;SDS011;64821;13.710;100.604;2023-02-10T01:09:51;14.13;;;7.28;;
76094;SDS011;64821;13.710;100.604;2023-02-10T01:10:59;14.27;;;7.22;;
76094;SDS011;64821;13.710;100.604;2023-02-10T01:12:03;18.30;;;7.28;;
76094;SDS011;64821;13.710;100.604;2023-02-10T01:13:08;15.15;;;7.28;;
76094;SDS011;64821;13.710;100.604;2023-02-10T01:14:13;15.97;;;7.53;;
76094;SDS011;64821;13.710;100.604;2023-02-10T01:15:17;12.85;;;7.63;;
76094;SDS011;64821;13.710;100.604;2023-02-10T01:16:21;14.40;;;7.35;;
76094;SDS011;64821;13.710;100.604;2023-02-10T01:17:25;13.85;;;7.57;;
76094;SDS011;64821;13.710;100.604;2023-02-10T01:18:28;13.52;;;7.38;;
76094;SDS011;64821;13.710;100.604;2023-02-10T01:19:35;13.73;;;7.03;;
76094;SDS011;64821;13.710;100.604;2023-02-10T01:20:39;15.38;;;7.57;;
76094;SDS011;64821;13.710;100.604;2023-02-10T01:21:45;16.10;;;7.72;;
76094;SDS011;64821;13.710;100.604;2023-02-10T01:22:48;15.00;;;7.20;;
76094;SDS011;64821;13.710;100.604;2023-02-10T01:23:52;16.58;;;6.63;;
76094;SDS011;64821;13.710;100.604;2023-02-10T01:24:56;11.90;;;6.43;;
76094;SDS011;64821;13.710;100.604;2023-02-10T01:26:00;16.58;;;6.75;;
76094;SDS011;64821;13.710;100.604;2023-02-10T01:27:03;13.75;;;7.00;;
76094;SDS011;64821;13.710;100.604;2023-02-10T01:28:08;11.65;;;6.47;;
76094;SDS011;64821;13.710;100.604;2023-02-10T01:29:12;17.05;;;7.45;;
76094;SDS011;64821;13.710;100.604;2023-02-10T01:30:16;14.20;;;7.10;;
76094;SDS011;64821;13.710;100.604;2023-02-10T01:31:22;14.52;;;7.25;;
76094;SDS011;64821;13.710;100.604;2023-02-10T01:32:26;13.73;;;7.68;;
76094;SDS011;64821;13.710;100.604;2023-02-10T01:33:30;15.40;;;7.53;;
76094;SDS011;64821;13.710;100.604;2023-02-10T01:34:35;12.60;;;7.10;;
76094;SDS011;64821;13.710;100.604;2023-02-10T01:35:39;15.60;;;7.00;;
76094;SDS011;64821;13.710;100.604;2023-02-10T01:36:44;15.82;;;7.05;;
76094;SDS011;64821;13.710;100.604;2023-02-10T01:37:58;13.90;;;7.00;;
76094;SDS011;64821;13.710;100.604;2023-02-10T01:39:02;12.52;;;6.93;;
76094;SDS011;64821;13.710;100.604;2023-02-10T01:40:06;16.42;;;7.43;;
76094;SDS011;64821;13.710;100.604;2023-02-10T01:41:10;15.43;;;7.30;;
76094;SDS011;64821;13.710;100.604;2023-02-10T01:42:18;16.30;;;7.20;;
76094;SDS011;64821;13.710;100.604;2023-02-10T01:43:24;12.85;;;7.38;;
76094;SDS011;64821;13.710;100.604;2023-02-10T01:46:14;13.20;;;6.88;;
76094;SDS011;64821;13.710;100.604;2023-02-10T01:47:17;12.73;;;6.20;;
76094;SDS011;64821;13.710;100.604;2023-02-10T01:48:21;11.98;;;6.07;;
76094;SDS011;64821;13.710;100.604;2023-02-10T01:49:27;12.90;;;5.85;;
76094;SDS011;64821;13.710;100.604;2023-02-10T01:50:34;10.95;;;5.70;;
76094;SDS011;64821;13.710;100.604;2023-02-10T01:51:42;12.88;;;6.18;;
76094;SDS011;64821;13.710;100.604;2023-02-10T01:52:52;11.57;;;5.90;;
76094;SDS011;64821;13.710;100.604;2023-02-10T01:53:57;12.77;;;6.50;;
76094;SDS011;64821;13.710;100.604;2023-02-10T01:55:02;15.07;;;6.50;;
76094;SDS011;64821;13.710;100.604;2023-02-10T01:56:09;13.20;;;6.00;;
76094;SDS011;64821;13.710;100.604;2023-02-10T01:57:15;12.27;;;6.20;;
76094;SDS011;64821;13.710;100.604;2023-02-10T01:58:21;11.13;;;6.23;;
76094;SDS011;64821;13.710;100.604;2023-02-10T01:59:28;12.32;;;6.20;;
76094;SDS011;64821;13.710;100.604;2023-02-10T02:00:35;11.10;;;6.05;;
76094;SDS011;64821;13.710;100.604;2023-02-10T02:01:39;12.38;;;5.90;;
76094;SDS011;64821;13.710;100.604;2023-02-10T02:02:43;10.90;;;6.32;;
76094;SDS011;64821;13.710;100.604;2023-02-10T02:03:47;12.17;;;6.40;;
76094;SDS011;64821;13.710;100.604;2023-02-10T02:04:52;12.85;;;6.80;;
76094;SDS011;64821;13.710;100.604;2023-02-10T02:05:57;13.48;;;6.97;;
76094;SDS011;64821;13.710;100.604;2023-02-10T02:07:02;15.52;;;6.53;;
76094;SDS011;64821;13.710;100.604;2023-02-10T02:08:07;12.13;;;6.13;;
76094;SDS011;64821;13.710;100.604;2023-02-10T02:09:13;13.60;;;6.27;;
76094;SDS011;64821;13.710;100.604;2023-02-10T02:10:17;12.35;;;6.45;;
76094;SDS011;64821;13.710;100.604;2023-02-10T02:11:21;15.77;;;7.00;;
76094;SDS011;64821;13.710;100.604;2023-02-10T02:12:34;15.57;;;6.55;;
76094;SDS011;64821;13.710;100.604;2023-02-10T02:13:49;14.15;;;7.70;;
76094;SDS011;64821;13.710;100.604;2023-02-10T02:15:06;17.80;;;7.47;;
76094;SDS011;64821;13.710;100.604;2023-02-10T02:16:19;11.60;;;6.35;;
76094;SDS011;64821;13.710;100.604;2023-02-10T02:17:31;14.15;;;7.40;;
76094;SDS011;64821;13.710;100.604;2023-02-10T02:18:41;13.40;;;6.82;;
76094;SDS011;64821;13.710;100.604;2023-02-10T02:26:13;16.85;;;6.50;;
76094;SDS011;64821;13.710;100.604;2023-02-10T02:27:45;13.02;;;7.43;;
76094;SDS011;64821;13.710;100.604;2023-02-10T02:29:06;12.33;;;6.37;;
76094;SDS011;64821;13.710;100.604;2023-02-10T02:30:31;14.73;;;6.43;;
76094;SDS011;64821;13.710;100.604;2023-02-10T02:31:58;13.13;;;6.93;;
76094;SDS011;64821;13.710;100.604;2023-02-10T02:33:04;13.45;;;6.50;;
76094;SDS011;64821;13.710;100.604;2023-02-10T02:34:11;11.52;;;6.30;;
76094;SDS011;64821;13.710;100.604;2023-02-10T02:35:21;13.07;;;6.50;;
76094;SDS011;64821;13.710;100.604;2023-02-10T02:36:29;10.88;;;5.90;;
76094;SDS011;64821;13.710;100.604;2023-02-10T02:37:36;15.75;;;6.38;;
76094;SDS011;64821;13.710;100.604;2023-02-10T02:38:42;14.85;;;6.40;;
76094;SDS011;64821;13.710;100.604;2023-02-10T02:39:48;14.27;;;6.97;;
76094;SDS011;64821;13.710;100.604;2023-02-10T02:40:55;15.53;;;6.40;;
76094;SDS011;64821;13.710;100.604;2023-02-10T02:43:25;12.55;;;5.82;;
76094;SDS011;64821;13.710;100.604;2023-02-10T02:44:43;11.70;;;5.65;;
76094;SDS011;64821;13.710;100.604;2023-02-10T02:45:52;11.27;;;5.95;;
76094;SDS011;64821;13.710;100.604;2023-02-10T02:47:12;14.33;;;6.77;;
76094;SDS011;64821;13.710;100.604;2023-02-10T02:48:34;14.27;;;6.60;;
76094;SDS011;64821;13.710;100.604;2023-02-10T02:50:00;13.45;;;7.30;;
76094;SDS011;64821;13.710;100.604;2023-02-10T02:51:17;15.07;;;6.70;;
76094;SDS011;64821;13.710;100.604;2023-02-10T02:52:36;13.77;;;7.45;;
76094;SDS011;64821;13.710;100.604;2023-02-10T02:53:55;17.97;;;6.40;;
76094;SDS011;64821;13.710;100.604;2023-02-10T02:55:04;13.93;;;6.05;;
76094;SDS011;64821;13.710;100.604;2023-02-10T02:56:18;15.20;;;7.07;;
76094;SDS011;64821;13.710;100.604;2023-02-10T02:57:39;21.13;;;7.88;;
76094;SDS011;64821;13.710;100.604;2023-02-10T02:58:53;14.88;;;7.22;;
76094;SDS011;64821;13.710;100.604;2023-02-10T03:00:13;16.57;;;6.80;;
76094;SDS011;64821;13.710;100.604;2023-02-10T03:01:21;18.13;;;7.75;;
76094;SDS011;64821;13.710;100.604;2023-02-10T03:02:35;19.95;;;7.80;;
76094;SDS011;64821;13.710;100.604;2023-02-10T03:03:41;12.05;;;6.78;;
76094;SDS011;64821;13.710;100.604;2023-02-10T03:04:45;11.95;;;6.63;;
76094;SDS011;64821;13.710;100.604;2023-02-10T03:05:50;11.20;;;6.10;;
76094;SDS011;64821;13.710;100.604;2023-02-10T03:06:53;13.20;;;6.20;;
76094;SDS011;64821;13.710;100.604;2023-02-10T03:07:57;15.95;;;7.22;;
76094;SDS011;64821;13.710;100.604;2023-02-10T03:09:01;13.88;;;6.63;;
76094;SDS011;64821;13.710;100.604;2023-02-10T03:10:05;11.40;;;6.57;;
76094;SDS011;64821;13.710;100.604;2023-02-10T03:11:08;14.20;;;6.60;;
76094;SDS011;64821;13.710;100.604;2023-02-10T03:12:12;15.52;;;6.90;;
76094;SDS011;64821;13.710;100.604;2023-02-10T03:13:18;14.77;;;7.00;;
76094;SDS011;64821;13.710;100.604;2023-02-10T03:14:22;13.52;;;6.35;;
76094;SDS011;64821;13.710;100.604;2023-02-10T03:15:26;12.45;;;6.30;;
76094;SDS011;64821;13.710;100.604;2023-02-10T03:16:32;14.47;;;6.40;;
76094;SDS011;64821;13.710;100.604;2023-02-10T03:17:37;16.52;;;6.47;;
76094;SDS011;64821;13.710;100.604;2023-02-10T03:18:41;13.15;;;6.25;;
76094;SDS011;64821;13.710;100.604;2023-02-10T03:19:45;10.80;;;5.80;;
76094;SDS011;64821;13.710;100.604;2023-02-10T03:20:49;13.77;;;6.55;;
76094;SDS011;64821;13.710;100.604;2023-02-10T03:21:52;14.97;;;6.43;;
76094;SDS011;64821;13.710;100.604;2023-02-10T03:22:56;13.45;;;6.65;;
76094;SDS011;64821;13.710;100.604;2023-02-10T03:24:00;11.50;;;6.47;;
76094;SDS011;64821;13.710;100.604;2023-02-10T03:25:04;13.68;;;6.20;;
76094;SDS011;64821;13.710;100.604;2023-02-10T03:26:08;13.60;;;5.95;;
76094;SDS011;64821;13.710;100.604;2023-02-10T03:27:12;14.23;;;5.73;;
76094;SDS011;64821;13.710;100.604;2023-02-10T03:28:15;14.85;;;6.03;;
76094;SDS011;64821;13.710;100.604;2023-02-10T03:29:19;13.52;;;6.45;;
76094;SDS011;64821;13.710;100.604;2023-02-10T03:30:23;10.30;;;5.55;;
76094;SDS011;64821;13.710;100.604;2023-02-10T03:31:27;12.00;;;5.70;;
76094;SDS011;64821;13.710;100.604;2023-02-10T03:32:31;15.03;;;6.03;;
76094;SDS011;64821;13.710;100.604;2023-02-10T03:33:36;10.63;;;5.10;;
76094;SDS011;64821;13.710;100.604;2023-02-10T03:34:39;9.95;;;4.97;;
76094;SDS011;64821;13.710;100.604;2023-02-10T03:35:44;13.27;;;5.82;;
76094;SDS011;64821;13.710;100.604;2023-02-10T03:36:48;11.88;;;5.63;;
76094;SDS011;64821;13.710;100.604;2023-02-10T03:37:52;11.70;;;5.60;;
76094;SDS011;64821;13.710;100.604;2023-02-10T03:38:56;11.75;;;5.78;;
76094;SDS011;64821;13.710;100.604;2023-02-10T03:39:59;13.40;;;5.28;;
76094;SDS011;64821;13.710;100.604;2023-02-10T03:41:03;10.38;;;5.35;;
76094;SDS011;64821;13.710;100.604;2023-02-10T03:42:07;12.88;;;5.68;;
76094;SDS011;64821;13.710;100.604;2023-02-10T03:43:10;10.00;;;5.03;;
76094;SDS011;64821;13.710;100.604;2023-02-10T03:44:14;9.43;;;5.25;;
76094;SDS011;64821;13.710;100.604;2023-02-10T03:45:18;11.25;;;5.15;;
76094;SDS011;64821;13.710;100.604;2023-02-10T03:46:21;12.52;;;5.53;;
76094;SDS011;64821;13.710;100.604;2023-02-10T03:47:25;11.27;;;5.63;;
76094;SDS011;64821;13.710;100.604;2023-02-10T03:48:29;9.53;;;5.40;;
76094;SDS011;64821;13.710;100.604;2023-02-10T03:49:35;13.43;;;6.25;;
76094;SDS011;64821;13.710;100.604;2023-02-10T03:50:38;10.52;;;5.55;;
76094;SDS011;64821;13.710;100.604;2023-02-10T03:51:42;10.77;;;5.60;;
76094;SDS011;64821;13.710;100.604;2023-02-10T03:52:46;12.90;;;5.97;;
76094;SDS011;64821;13.710;100.604;2023-02-10T03:53:50;11.93;;;5.90;;
76094;SDS011;64821;13.710;100.604;2023-02-10T03:54:53;10.90;;;5.20;;
76094;SDS011;64821;13.710;100.604;2023-02-10T03:55:57;12.65;;;5.68;;
76094;SDS011;64821;13.710;100.604;2023-02-10T03:57:01;12.00;;;5.28;;
76094;SDS011;64821;13.710;100.604;2023-02-10T03:58:05;12.50;;;5.43;;
76094;SDS011;64821;13.710;100.604;2023-02-10T03:59:09;11.80;;;5.53;;
76094;SDS011;64821;13.710;100.604;2023-02-10T04:00:13;15.63;;;5.93;;
76094;SDS011;64821;13.710;100.604;2023-02-10T04:01:18;10.73;;;5.50;;
76094;SDS011;64821;13.710;100.604;2023-02-10T04:02:21;10.27;;;4.97;;
76094;SDS011;64821;13.710;100.604;2023-02-10T04:03:25;17.55;;;6.32;;
76094;SDS011;64821;13.710;100.604;2023-02-10T04:04:29;11.27;;;6.10;;
76094;SDS011;64821;13.710;100.604;2023-02-10T04:05:34;13.63;;;5.85;;
76094;SDS011;64821;13.710;100.604;2023-02-10T04:06:38;12.30;;;5.35;;
76094;SDS011;64821;13.710;100.604;2023-02-10T04:07:41;11.90;;;5.05;;
76094;SDS011;64821;13.710;100.604;2023-02-10T04:08:46;10.90;;;5.03;;
76094;SDS011;64821;13.710;100.604;2023-02-10T04:09:50;10.90;;;4.90;;
76094;SDS011;64821;13.710;100.604;2023-02-10T04:10:54;11.30;;;4.80;;
76094;SDS011;64821;13.710;100.604;2023-02-10T04:11:57;12.43;;;5.05;;
76094;SDS011;64821;13.710;100.604;2023-02-10T04:13:01;10.85;;;5.15;;
76094;SDS011;64821;13.710;100.604;2023-02-10T04:14:05;11.63;;;6.30;;
76094;SDS011;64821;13.710;100.604;2023-02-10T04:15:09;12.53;;;5.00;;
76094;SDS011;64821;13.710;100.604;2023-02-10T04:16:13;10.00;;;4.05;;
76094;SDS011;64821;13.710;100.604;2023-02-10T04:17:17;12.48;;;5.40;;
76094;SDS011;64821;13.710;100.604;2023-02-10T04:18:21;12.98;;;5.10;;
76094;SDS011;64821;13.710;100.604;2023-02-10T04:19:25;11.10;;;5.30;;
76094;SDS011;64821;13.710;100.604;2023-02-10T04:20:28;11.10;;;5.00;;
76094;SDS011;64821;13.710;100.604;2023-02-10T04:21:34;10.82;;;4.35;;
76094;SDS011;64821;13.710;100.604;2023-02-10T04:22:38;10.68;;;4.32;;
76094;SDS011;64821;13.710;100.604;2023-02-10T04:23:44;11.68;;;5.18;;
76094;SDS011;64821;13.710;100.604;2023-02-10T04:24:48;12.02;;;4.57;;
76094;SDS011;64821;13.710;100.604;2023-02-10T04:25:52;11.13;;;4.80;;
76094;SDS011;64821;13.710;100.604;2023-02-10T04:26:55;12.55;;;4.80;;
76094;SDS011;64821;13.710;100.604;2023-02-10T04:27:59;10.93;;;4.35;;
76094;SDS011;64821;13.710;100.604;2023-02-10T04:29:03;13.23;;;6.45;;
76094;SDS011;64821;13.710;100.604;2023-02-10T04:30:07;10.00;;;4.50;;
76094;SDS011;64821;13.710;100.604;2023-02-10T04:31:12;11.00;;;4.70;;
76094;SDS011;64821;13.710;100.604;2023-02-10T04:32:15;9.05;;;4.53;;
76094;SDS011;64821;13.710;100.604;2023-02-10T04:33:19;10.48;;;4.68;;
76094;SDS011;64821;13.710;100.604;2023-02-10T04:34:23;9.93;;;4.80;;
76094;SDS011;64821;13.710;100.604;2023-02-10T04:35:27;11.15;;;4.40;;
76094;SDS011;64821;13.710;100.604;2023-02-10T04:36:31;9.87;;;4.60;;
76094;SDS011;64821;13.710;100.604;2023-02-10T04:37:36;12.60;;;4.90;;
76094;SDS011;64821;13.710;100.604;2023-02-10T04:38:40;11.13;;;4.63;;
76094;SDS011;64821;13.710;100.604;2023-02-10T04:39:44;11.25;;;4.03;;
76094;SDS011;64821;13.710;100.604;2023-02-10T04:40:47;13.45;;;5.07;;
76094;SDS011;64821;13.710;100.604;2023-02-10T04:41:51;12.97;;;5.33;;
76094;SDS011;64821;13.710;100.604;2023-02-10T04:42:55;9.02;;;4.40;;
76094;SDS011;64821;13.710;100.604;2023-02-10T04:43:58;10.45;;;4.80;;
76094;SDS011;64821;13.710;100.604;2023-02-10T04:45:02;10.32;;;4.57;;
76094;SDS011;64821;13.710;100.604;2023-02-10T04:46:06;13.23;;;5.00;;
76094;SDS011;64821;13.710;100.604;2023-02-10T04:47:10;11.60;;;5.10;;
76094;SDS011;64821;13.710;100.604;2023-02-10T04:48:14;11.93;;;5.88;;
76094;SDS011;64821;13.710;100.604;2023-02-10T04:49:18;11.60;;;5.28;;
76094;SDS011;64821;13.710;100.604;2023-02-10T04:50:21;12.68;;;4.75;;
76094;SDS011;64821;13.710;100.604;2023-02-10T04:51:25;10.98;;;5.18;;
76094;SDS011;64821;13.710;100.604;2023-02-10T04:52:29;12.00;;;5.37;;
76094;SDS011;64821;13.710;100.604;2023-02-10T04:53:34;10.55;;;5.03;;
76094;SDS011;64821;13.710;100.604;2023-02-10T04:54:38;10.88;;;4.95;;
76094;SDS011;64821;13.710;100.604;2023-02-10T04:55:42;12.45;;;5.63;;
76094;SDS011;64821;13.710;100.604;2023-02-10T04:56:46;9.27;;;4.70;;
76094;SDS011;64821;13.710;100.604;2023-02-10T04:57:49;13.43;;;5.20;;
76094;SDS011;64821;13.710;100.604;2023-02-10T04:58:53;12.25;;;4.90;;
76094;SDS011;64821;13.710;100.604;2023-02-10T04:59:59;9.10;;;4.75;;
76094;SDS011;64821;13.710;100.604;2023-02-10T05:01:03;11.60;;;4.80;;
76094;SDS011;64821;13.710;100.604;2023-02-10T05:02:06;12.98;;;5.25;;
76094;SDS011;64821;13.710;100.604;2023-02-10T05:03:10;12.50;;;4.73;;
76094;SDS011;64821;13.710;100.604;2023-02-10T05:04:14;10.50;;;4.95;;
76094;SDS011;64821;13.710;100.604;2023-02-10T05:05:18;10.00;;;5.00;;
76094;SDS011;64821;13.710;100.604;2023-02-10T05:06:21;10.27;;;5.03;;
76094;SDS011;64821;13.710;100.604;2023-02-10T05:07:25;10.55;;;4.72;;
76094;SDS011;64821;13.710;100.604;2023-02-10T05:08:29;12.23;;;5.33;;
76094;SDS011;64821;13.710;100.604;2023-02-10T05:09:34;11.23;;;5.57;;
76094;SDS011;64821;13.710;100.604;2023-02-10T05:10:38;10.55;;;5.55;;
76094;SDS011;64821;13.710;100.604;2023-02-10T05:11:42;11.70;;;5.30;;
76094;SDS011;64821;13.710;100.604;2023-02-10T05:12:45;8.90;;;5.15;;
76094;SDS011;64821;13.710;100.604;2023-02-10T05:13:49;10.50;;;5.10;;
76094;SDS011;64821;13.710;100.604;2023-02-10T05:14:53;10.00;;;4.97;;
76094;SDS011;64821;13.710;100.604;2023-02-10T05:15:57;11.27;;;5.25;;
76094;SDS011;64821;13.710;100.604;2023-02-10T05:17:00;10.57;;;5.47;;
76094;SDS011;64821;13.710;100.604;2023-02-10T05:18:04;9.80;;;5.40;;
76094;SDS011;64821;13.710;100.604;2023-02-10T05:19:08;10.30;;;5.03;;
76094;SDS011;64821;13.710;100.604;2023-02-10T05:20:11;12.13;;;5.72;;
76094;SDS011;64821;13.710;100.604;2023-02-10T05:21:15;13.70;;;5.60;;
76094;SDS011;64821;13.710;100.604;2023-02-10T05:22:19;9.88;;;5.28;;
76094;SDS011;64821;13.710;100.604;2023-02-10T05:23:22;9.13;;;5.53;;
76094;SDS011;64821;13.710;100.604;2023-02-10T05:24:44;9.57;;;5.50;;
76094;SDS011;64821;13.710;100.604;2023-02-10T05:25:47;11.20;;;5.40;;
76094;SDS011;64821;13.710;100.604;2023-02-10T05:26:51;12.52;;;5.63;;
76094;SDS011;64821;13.710;100.604;2023-02-10T05:27:55;11.05;;;5.60;;
76094;SDS011;64821;13.710;100.604;2023-02-10T05:28:59;14.55;;;5.50;;
76094;SDS011;64821;13.710;100.604;2023-02-10T05:30:03;12.53;;;6.07;;
76094;SDS011;64821;13.710;100.604;2023-02-10T05:31:07;11.27;;;5.20;;
76094;SDS011;64821;13.710;100.604;2023-02-10T05:32:11;12.70;;;5.80;;
76094;SDS011;64821;13.710;100.604;2023-02-10T05:33:14;11.07;;;5.38;;
76094;SDS011;64821;13.710;100.604;2023-02-10T05:34:18;11.95;;;5.50;;
76094;SDS011;64821;13.710;100.604;2023-02-10T05:35:22;9.30;;;4.73;;
76094;SDS011;64821;13.710;100.604;2023-02-10T05:36:25;9.45;;;5.30;;
76094;SDS011;64821;13.710;100.604;2023-02-10T05:37:29;9.07;;;5.35;;
76094;SDS011;64821;13.710;100.604;2023-02-10T05:38:33;9.82;;;4.65;;
76094;SDS011;64821;13.710;100.604;2023-02-10T05:39:36;12.82;;;5.00;;
76094;SDS011;64821;13.710;100.604;2023-02-10T05:40:42;11.03;;;5.47;;
76094;SDS011;64821;13.710;100.604;2023-02-10T05:41:45;9.98;;;5.00;;
76094;SDS011;64821;13.710;100.604;2023-02-10T05:42:49;12.00;;;5.55;;
76094;SDS011;64821;13.710;100.604;2023-02-10T05:43:53;10.40;;;4.88;;
76094;SDS011;64821;13.710;100.604;2023-02-10T05:44:56;10.38;;;5.07;;
76094;SDS011;64821;13.710;100.604;2023-02-10T05:46:00;9.00;;;5.13;;
76094;SDS011;64821;13.710;100.604;2023-02-10T05:47:04;8.65;;;5.00;;
76094;SDS011;64821;13.710;100.604;2023-02-10T05:48:07;9.80;;;5.30;;
76094;SDS011;64821;13.710;100.604;2023-02-10T05:49:11;9.65;;;5.03;;
76094;SDS011;64821;13.710;100.604;2023-02-10T05:50:15;8.95;;;4.97;;
76094;SDS011;64821;13.710;100.604;2023-02-10T05:51:18;11.10;;;4.80;;
76094;SDS011;64821;13.710;100.604;2023-02-10T05:52:22;9.73;;;4.50;;
76094;SDS011;64821;13.710;100.604;2023-02-10T05:53:26;11.23;;;4.88;;
76094;SDS011;64821;13.710;100.604;2023-02-10T05:54:29;11.70;;;4.97;;
76094;SDS011;64821;13.710;100.604;2023-02-10T05:55:33;11.00;;;4.97;;
76094;SDS011;64821;13.710;100.604;2023-02-10T05:56:39;10.73;;;4.73;;
76094;SDS011;64821;13.710;100.604;2023-02-10T05:57:42;11.45;;;5.35;;
76094;SDS011;64821;13.710;100.604;2023-02-10T05:58:46;12.43;;;5.30;;
76094;SDS011;64821;13.710;100.604;2023-02-10T05:59:50;12.02;;;5.40;;
76094;SDS011;64821;13.710;100.604;2023-02-10T06:00:53;12.27;;;5.60;;
76094;SDS011;64821;13.710;100.604;2023-02-10T06:01:57;11.60;;;5.40;;
76094;SDS011;64821;13.710;100.604;2023-02-10T06:03:01;11.82;;;5.75;;
76094;SDS011;64821;13.710;100.604;2023-02-10T06:04:05;12.30;;;5.03;;
76094;SDS011;64821;13.710;100.604;2023-02-10T06:05:08;13.13;;;5.32;;
76094;SDS011;64821;13.710;100.604;2023-02-10T06:06:12;16.33;;;5.57;;
76094;SDS011;64821;13.710;100.604;2023-02-10T06:07:16;12.17;;;5.20;;
76094;SDS011;64821;13.710;100.604;2023-02-10T06:08:20;11.88;;;4.80;;
76094;SDS011;64821;13.710;100.604;2023-02-10T06:09:24;10.73;;;4.82;;
76094;SDS011;64821;13.710;100.604;2023-02-10T06:10:27;8.68;;;4.82;;
76094;SDS011;64821;13.710;100.604;2023-02-10T06:11:31;10.95;;;5.20;;
76094;SDS011;64821;13.710;100.604;2023-02-10T06:12:37;11.37;;;4.80;;
76094;SDS011;64821;13.710;100.604;2023-02-10T06:13:41;10.57;;;5.03;;
76094;SDS011;64821;13.710;100.604;2023-02-10T06:14:45;12.13;;;5.65;;
76094;SDS011;64821;13.710;100.604;2023-02-10T06:15:49;9.55;;;4.90;;
76094;SDS011;64821;13.710;100.604;2023-02-10T06:16:52;10.32;;;5.38;;
76094;SDS011;64821;13.710;100.604;2023-02-10T06:17:56;10.77;;;5.40;;
76094;SDS011;64821;13.710;100.604;2023-02-10T06:19:00;9.43;;;4.60;;
76094;SDS011;64821;13.710;100.604;2023-02-10T06:20:04;12.02;;;6.07;;
76094;SDS011;64821;13.710;100.604;2023-02-10T06:21:08;12.90;;;5.68;;
76094;SDS011;64821;13.710;100.604;2023-02-10T06:22:12;11.70;;;4.50;;
76094;SDS011;64821;13.710;100.604;2023-02-10T06:23:15;11.40;;;4.87;;
76094;SDS011;64821;13.710;100.604;2023-02-10T06:24:19;9.65;;;4.50;;
76094;SDS011;64821;13.710;100.604;2023-02-10T06:25:23;10.43;;;4.90;;
76094;SDS011;64821;13.710;100.604;2023-02-10T06:26:27;9.20;;;5.10;;